sensor_id;sensor_type;location;lat;lon;timestamp;P1;durP1;ratioP1;P2;durP2;ratioP2
80384;SDS011;69702;44.618;33.604;2023-08-20T00:00:29;16.25;;;10.20;;
80384;SDS011;69702;44.618;33.604;2023-08-20T00:02:59;12.57;;;9.80;;
80384;SDS011;69702;44.618;33.604;2023-08-20T00:05:32;12.23;;;10.13;;
80384;SDS011;69702;44.618;33.604;2023-08-20T00:07:59;12.95;;;10.52;;
80384;SDS011;69702;44.618;33.604;2023-08-20T00:10:25;14.05;;;10.25;;
80384;SDS011;69702;44.618;33.604;2023-08-20T00:12:51;14.33;;;9.33;;
80384;SDS011;69702;44.618;33.604;2023-08-20T00:15:17;15.13;;;10.50;;
80384;SDS011;69702;44.618;33.604;2023-08-20T00:17:45;15.85;;;10.38;;
80384;SDS011;69702;44.618;33.604;2023-08-20T00:20:13;15.45;;;10.23;;
80384;SDS011;69702;44.618;33.604;2023-08-20T00:22:40;13.80;;;10.68;;
80384;SDS011;69702;44.618;33.604;2023-08-20T00:25:11;13.67;;;10.50;;
80384;SDS011;69702;44.618;33.604;2023-08-20T00:27:39;15.52;;;10.93;;
80384;SDS011;69702;44.618;33.604;2023-08-20T00:30:05;17.20;;;10.60;;
80384;SDS011;69702;44.618;33.604;2023-08-20T00:32:32;14.48;;;9.77;;
80384;SDS011;69702;44.618;33.604;2023-08-20T00:34:58;12.98;;;10.15;;
80384;SDS011;69702;44.618;33.604;2023-08-20T00:37:24;13.03;;;10.17;;
80384;SDS011;69702;44.618;33.604;2023-08-20T00:39:51;15.05;;;10.40;;
80384;SDS011;69702;44.618;33.604;2023-08-20T00:42:17;15.77;;;10.55;;
80384;SDS011;69702;44.618;33.604;2023-08-20T00:44:43;14.63;;;10.50;;
80384;SDS011;69702;44.618;33.604;2023-08-20T00:47:13;12.60;;;10.70;;
80384;SDS011;69702;44.618;33.604;2023-08-20T00:49:39;13.67;;;11.00;;
80384;SDS011;69702;44.618;33.604;2023-08-20T00:52:05;14.48;;;10.30;;
80384;SDS011;69702;44.618;33.604;2023-08-20T00:54:34;13.88;;;10.27;;
80384;SDS011;69702;44.618;33.604;2023-08-20T00:57:00;14.40;;;10.43;;
80384;SDS011;69702;44.618;33.604;2023-08-20T00:59:28;15.38;;;10.75;;
80384;SDS011;69702;44.618;33.604;2023-08-20T01:01:55;18.13;;;10.47;;
80384;SDS011;69702;44.618;33.604;2023-08-20T01:04:24;13.77;;;9.85;;
80384;SDS011;69702;44.618;33.604;2023-08-20T01:07:04;17.13;;;10.73;;
80384;SDS011;69702;44.618;33.604;2023-08-20T01:12:31;16.33;;;10.80;;
80384;SDS011;69702;44.618;33.604;2023-08-20T01:14:57;13.70;;;10.77;;
80384;SDS011;69702;44.618;33.604;2023-08-20T01:17:23;14.27;;;10.52;;
80384;SDS011;69702;44.618;33.604;2023-08-20T01:19:50;12.90;;;10.32;;
80384;SDS011;69702;44.618;33.604;2023-08-20T01:30:21;14.13;;;11.25;;
80384;SDS011;69702;44.618;33.604;2023-08-20T01:32:50;15.13;;;11.38;;
80384;SDS011;69702;44.618;33.604;2023-08-20T01:35:17;17.63;;;11.07;;
80384;SDS011;69702;44.618;33.604;2023-08-20T01:37:43;14.75;;;11.55;;
80384;SDS011;69702;44.618;33.604;2023-08-20T01:40:10;14.77;;;11.17;;
80384;SDS011;69702;44.618;33.604;2023-08-20T01:42:38;16.60;;;11.80;;
80384;SDS011;69702;44.618;33.604;2023-08-20T01:45:05;14.25;;;11.35;;
80384;SDS011;69702;44.618;33.604;2023-08-20T01:47:33;14.63;;;11.70;;
80384;SDS011;69702;44.618;33.604;2023-08-20T01:50:00;15.35;;;11.73;;
80384;SDS011;69702;44.618;33.604;2023-08-20T01:52:30;15.37;;;11.30;;
80384;SDS011;69702;44.618;33.604;2023-08-20T01:54:56;16.25;;;11.77;;
80384;SDS011;69702;44.618;33.604;2023-08-20T01:57:23;19.50;;;12.10;;
80384;SDS011;69702;44.618;33.604;2023-08-20T01:59:49;15.57;;;11.68;;
80384;SDS011;69702;44.618;33.604;2023-08-20T02:02:15;14.80;;;11.27;;
80384;SDS011;69702;44.618;33.604;2023-08-20T02:04:41;17.37;;;11.13;;
80384;SDS011;69702;44.618;33.604;2023-08-20T02:07:07;17.60;;;12.00;;
80384;SDS011;69702;44.618;33.604;2023-08-20T02:09:33;16.63;;;12.13;;
80384;SDS011;69702;44.618;33.604;2023-08-20T02:11:59;17.17;;;12.15;;
80384;SDS011;69702;44.618;33.604;2023-08-20T02:14:26;15.13;;;11.27;;
80384;SDS011;69702;44.618;33.604;2023-08-20T02:16:54;15.05;;;11.48;;
80384;SDS011;69702;44.618;33.604;2023-08-20T02:19:20;17.15;;;11.70;;
80384;SDS011;69702;44.618;33.604;2023-08-20T02:21:46;15.73;;;12.13;;
80384;SDS011;69702;44.618;33.604;2023-08-20T02:24:13;15.75;;;11.75;;
80384;SDS011;69702;44.618;33.604;2023-08-20T02:26:39;17.37;;;12.07;;
80384;SDS011;69702;44.618;33.604;2023-08-20T02:29:05;13.95;;;10.85;;
80384;SDS011;69702;44.618;33.604;2023-08-20T02:31:31;17.20;;;12.85;;
80384;SDS011;69702;44.618;33.604;2023-08-20T02:33:57;14.93;;;11.70;;
80384;SDS011;69702;44.618;33.604;2023-08-20T02:36:23;14.43;;;12.07;;
80384;SDS011;69702;44.618;33.604;2023-08-20T02:38:49;17.10;;;11.43;;
80384;SDS011;69702;44.618;33.604;2023-08-20T02:41:15;15.63;;;11.15;;
80384;SDS011;69702;44.618;33.604;2023-08-20T02:43:41;16.75;;;11.23;;
80384;SDS011;69702;44.618;33.604;2023-08-20T02:46:07;14.30;;;11.45;;
80384;SDS011;69702;44.618;33.604;2023-08-20T02:48:33;15.40;;;12.00;;
80384;SDS011;69702;44.618;33.604;2023-08-20T02:50:59;14.10;;;11.43;;
80384;SDS011;69702;44.618;33.604;2023-08-20T02:53:26;14.57;;;11.35;;
80384;SDS011;69702;44.618;33.604;2023-08-20T02:55:52;15.10;;;11.48;;
80384;SDS011;69702;44.618;33.604;2023-08-20T02:58:18;14.30;;;10.85;;
80384;SDS011;69702;44.618;33.604;2023-08-20T03:00:44;14.97;;;10.97;;
80384;SDS011;69702;44.618;33.604;2023-08-20T03:03:11;15.32;;;11.80;;
80384;SDS011;69702;44.618;33.604;2023-08-20T03:05:40;13.63;;;11.15;;
80384;SDS011;69702;44.618;33.604;2023-08-20T03:08:06;12.93;;;11.32;;
80384;SDS011;69702;44.618;33.604;2023-08-20T03:10:32;13.80;;;11.52;;
80384;SDS011;69702;44.618;33.604;2023-08-20T03:13:03;15.17;;;11.50;;
80384;SDS011;69702;44.618;33.604;2023-08-20T03:15:29;14.77;;;10.90;;
80384;SDS011;69702;44.618;33.604;2023-08-20T03:17:56;17.63;;;12.40;;
80384;SDS011;69702;44.618;33.604;2023-08-20T03:20:22;14.25;;;11.10;;
80384;SDS011;69702;44.618;33.604;2023-08-20T03:22:48;14.73;;;11.80;;
80384;SDS011;69702;44.618;33.604;2023-08-20T03:25:14;16.83;;;10.43;;
80384;SDS011;69702;44.618;33.604;2023-08-20T03:27:41;15.02;;;10.82;;
80384;SDS011;69702;44.618;33.604;2023-08-20T03:30:07;14.52;;;10.25;;
80384;SDS011;69702;44.618;33.604;2023-08-20T03:32:34;18.65;;;11.07;;
80384;SDS011;69702;44.618;33.604;2023-08-20T03:35:00;15.75;;;10.63;;
80384;SDS011;69702;44.618;33.604;2023-08-20T03:37:29;13.27;;;10.30;;
80384;SDS011;69702;44.618;33.604;2023-08-20T03:39:56;15.43;;;10.70;;
80384;SDS011;69702;44.618;33.604;2023-08-20T03:42:22;15.30;;;10.73;;
80384;SDS011;69702;44.618;33.604;2023-08-20T03:44:48;16.30;;;10.93;;
80384;SDS011;69702;44.618;33.604;2023-08-20T03:47:16;13.60;;;9.90;;
80384;SDS011;69702;44.618;33.604;2023-08-20T03:49:46;17.10;;;10.30;;
80384;SDS011;69702;44.618;33.604;2023-08-20T03:52:15;16.38;;;10.32;;
80384;SDS011;69702;44.618;33.604;2023-08-20T03:54:42;15.90;;;10.50;;
80384;SDS011;69702;44.618;33.604;2023-08-20T03:57:08;14.70;;;9.98;;
80384;SDS011;69702;44.618;33.604;2023-08-20T03:59:34;17.93;;;10.83;;
80384;SDS011;69702;44.618;33.604;2023-08-20T04:02:00;16.92;;;10.23;;
80384;SDS011;69702;44.618;33.604;2023-08-20T04:04:26;14.90;;;10.18;;
80384;SDS011;69702;44.618;33.604;2023-08-20T04:06:53;13.02;;;9.38;;
80384;SDS011;69702;44.618;33.604;2023-08-20T04:09:19;12.18;;;9.07;;
80384;SDS011;69702;44.618;33.604;2023-08-20T04:11:45;15.13;;;8.40;;
80384;SDS011;69702;44.618;33.604;2023-08-20T04:14:11;16.90;;;10.00;;
80384;SDS011;69702;44.618;33.604;2023-08-20T04:16:37;12.88;;;8.43;;
80384;SDS011;69702;44.618;33.604;2023-08-20T04:19:03;15.30;;;9.50;;
80384;SDS011;69702;44.618;33.604;2023-08-20T04:21:29;15.73;;;9.30;;
80384;SDS011;69702;44.618;33.604;2023-08-20T04:23:55;12.60;;;8.50;;
80384;SDS011;69702;44.618;33.604;2023-08-20T04:26:21;12.82;;;9.75;;
80384;SDS011;69702;44.618;33.604;2023-08-20T04:28:47;19.52;;;10.75;;
80384;SDS011;69702;44.618;33.604;2023-08-20T04:31:13;15.13;;;11.30;;
80384;SDS011;69702;44.618;33.604;2023-08-20T04:33:49;13.73;;;10.15;;
80384;SDS011;69702;44.618;33.604;2023-08-20T04:36:19;13.50;;;9.90;;
80384;SDS011;69702;44.618;33.604;2023-08-20T04:38:45;17.02;;;9.73;;
80384;SDS011;69702;44.618;33.604;2023-08-20T04:41:11;14.27;;;10.73;;
80384;SDS011;69702;44.618;33.604;2023-08-20T04:43:37;16.33;;;8.93;;
80384;SDS011;69702;44.618;33.604;2023-08-20T04:46:04;16.42;;;8.90;;
80384;SDS011;69702;44.618;33.604;2023-08-20T04:48:30;15.80;;;8.60;;
80384;SDS011;69702;44.618;33.604;2023-08-20T04:50:56;13.70;;;9.15;;
80384;SDS011;69702;44.618;33.604;2023-08-20T04:53:24;13.23;;;8.88;;
80384;SDS011;69702;44.618;33.604;2023-08-20T04:55:50;14.20;;;8.93;;
80384;SDS011;69702;44.618;33.604;2023-08-20T04:58:16;15.40;;;8.63;;
80384;SDS011;69702;44.618;33.604;2023-08-20T05:00:45;12.88;;;8.90;;
80384;SDS011;69702;44.618;33.604;2023-08-20T05:03:13;13.20;;;8.20;;
80384;SDS011;69702;44.618;33.604;2023-08-20T05:05:39;11.98;;;9.05;;
80384;SDS011;69702;44.618;33.604;2023-08-20T05:08:05;12.33;;;8.60;;
80384;SDS011;69702;44.618;33.604;2023-08-20T05:10:32;12.20;;;8.77;;
80384;SDS011;69702;44.618;33.604;2023-08-20T05:12:58;12.52;;;8.65;;
80384;SDS011;69702;44.618;33.604;2023-08-20T05:15:24;14.73;;;11.05;;
80384;SDS011;69702;44.618;33.604;2023-08-20T05:17:50;15.38;;;10.85;;
80384;SDS011;69702;44.618;33.604;2023-08-20T05:20:16;17.97;;;9.60;;
80384;SDS011;69702;44.618;33.604;2023-08-20T05:22:43;12.85;;;8.68;;
80384;SDS011;69702;44.618;33.604;2023-08-20T05:25:09;22.48;;;8.98;;
80384;SDS011;69702;44.618;33.604;2023-08-20T05:27:36;13.82;;;8.00;;
80384;SDS011;69702;44.618;33.604;2023-08-20T05:30:02;13.93;;;8.82;;
80384;SDS011;69702;44.618;33.604;2023-08-20T05:32:30;13.97;;;9.20;;
80384;SDS011;69702;44.618;33.604;2023-08-20T05:34:57;10.20;;;8.43;;
80384;SDS011;69702;44.618;33.604;2023-08-20T05:37:23;13.18;;;7.90;;
80384;SDS011;69702;44.618;33.604;2023-08-20T05:39:49;11.77;;;9.20;;
80384;SDS011;69702;44.618;33.604;2023-08-20T05:42:15;14.30;;;8.65;;
80384;SDS011;69702;44.618;33.604;2023-08-20T05:44:47;12.50;;;8.47;;
80384;SDS011;69702;44.618;33.604;2023-08-20T05:47:19;13.57;;;9.15;;
80384;SDS011;69702;44.618;33.604;2023-08-20T05:49:45;13.70;;;9.52;;
80384;SDS011;69702;44.618;33.604;2023-08-20T05:52:11;11.32;;;8.20;;
80384;SDS011;69702;44.618;33.604;2023-08-20T05:54:38;10.63;;;9.27;;
80384;SDS011;69702;44.618;33.604;2023-08-20T05:57:04;11.37;;;7.90;;
80384;SDS011;69702;44.618;33.604;2023-08-20T05:59:31;13.23;;;8.15;;
80384;SDS011;69702;44.618;33.604;2023-08-20T06:01:57;10.63;;;8.40;;
80384;SDS011;69702;44.618;33.604;2023-08-20T06:04:23;10.40;;;8.23;;
80384;SDS011;69702;44.618;33.604;2023-08-20T06:06:49;13.33;;;9.27;;
80384;SDS011;69702;44.618;33.604;2023-08-20T06:09:15;12.67;;;9.30;;
80384;SDS011;69702;44.618;33.604;2023-08-20T06:11:41;12.60;;;7.70;;
80384;SDS011;69702;44.618;33.604;2023-08-20T06:14:07;10.60;;;7.55;;
80384;SDS011;69702;44.618;33.604;2023-08-20T06:16:33;15.35;;;9.20;;
80384;SDS011;69702;44.618;33.604;2023-08-20T06:18:59;13.43;;;10.43;;
80384;SDS011;69702;44.618;33.604;2023-08-20T06:21:25;12.18;;;8.63;;
80384;SDS011;69702;44.618;33.604;2023-08-20T06:23:51;13.48;;;8.00;;
80384;SDS011;69702;44.618;33.604;2023-08-20T06:26:17;15.20;;;7.28;;
80384;SDS011;69702;44.618;33.604;2023-08-20T06:28:43;11.77;;;7.63;;
80384;SDS011;69702;44.618;33.604;2023-08-20T06:31:10;12.77;;;7.70;;
80384;SDS011;69702;44.618;33.604;2023-08-20T06:33:36;13.82;;;7.47;;
80384;SDS011;69702;44.618;33.604;2023-08-20T06:36:02;12.05;;;8.23;;
80384;SDS011;69702;44.618;33.604;2023-08-20T06:38:28;13.47;;;9.27;;
80384;SDS011;69702;44.618;33.604;2023-08-20T06:40:54;15.32;;;9.40;;
80384;SDS011;69702;44.618;33.604;2023-08-20T06:43:21;14.40;;;10.40;;
80384;SDS011;69702;44.618;33.604;2023-08-20T06:45:47;18.42;;;9.10;;
80384;SDS011;69702;44.618;33.604;2023-08-20T06:48:13;19.58;;;13.52;;
80384;SDS011;69702;44.618;33.604;2023-08-20T06:50:41;22.10;;;10.80;;
80384;SDS011;69702;44.618;33.604;2023-08-20T06:53:07;16.02;;;9.68;;
80384;SDS011;69702;44.618;33.604;2023-08-20T06:55:33;17.17;;;9.43;;
80384;SDS011;69702;44.618;33.604;2023-08-20T06:58:00;16.25;;;8.35;;
80384;SDS011;69702;44.618;33.604;2023-08-20T07:00:26;16.02;;;9.20;;
80384;SDS011;69702;44.618;33.604;2023-08-20T07:02:53;13.63;;;7.93;;
80384;SDS011;69702;44.618;33.604;2023-08-20T07:05:19;12.80;;;8.02;;
80384;SDS011;69702;44.618;33.604;2023-08-20T07:07:46;17.08;;;8.63;;
80384;SDS011;69702;44.618;33.604;2023-08-20T07:10:12;13.45;;;8.63;;
80384;SDS011;69702;44.618;33.604;2023-08-20T07:12:38;14.87;;;9.03;;
80384;SDS011;69702;44.618;33.604;2023-08-20T07:15:04;14.77;;;8.13;;
80384;SDS011;69702;44.618;33.604;2023-08-20T07:17:31;15.82;;;8.43;;
80384;SDS011;69702;44.618;33.604;2023-08-20T07:19:57;11.95;;;5.93;;
80384;SDS011;69702;44.618;33.604;2023-08-20T07:22:23;32.58;;;6.93;;
80384;SDS011;69702;44.618;33.604;2023-08-20T07:24:49;13.40;;;5.93;;
80384;SDS011;69702;44.618;33.604;2023-08-20T07:27:16;10.57;;;5.25;;
80384;SDS011;69702;44.618;33.604;2023-08-20T07:29:42;10.07;;;5.55;;
80384;SDS011;69702;44.618;33.604;2023-08-20T07:32:08;11.38;;;5.00;;
80384;SDS011;69702;44.618;33.604;2023-08-20T07:34:34;11.73;;;5.05;;
80384;SDS011;69702;44.618;33.604;2023-08-20T07:37:00;10.00;;;5.70;;
80384;SDS011;69702;44.618;33.604;2023-08-20T07:39:27;8.50;;;5.32;;
80384;SDS011;69702;44.618;33.604;2023-08-20T07:41:53;8.70;;;4.63;;
80384;SDS011;69702;44.618;33.604;2023-08-20T07:44:19;7.18;;;4.72;;
80384;SDS011;69702;44.618;33.604;2023-08-20T07:46:45;10.60;;;4.00;;
80384;SDS011;69702;44.618;33.604;2023-08-20T07:49:11;12.75;;;7.45;;
80384;SDS011;69702;44.618;33.604;2023-08-20T07:51:37;13.38;;;9.50;;
80384;SDS011;69702;44.618;33.604;2023-08-20T07:54:03;12.53;;;7.00;;
80384;SDS011;69702;44.618;33.604;2023-08-20T07:56:29;11.43;;;4.82;;
80384;SDS011;69702;44.618;33.604;2023-08-20T07:58:55;8.48;;;4.35;;
80384;SDS011;69702;44.618;33.604;2023-08-20T08:01:21;10.50;;;3.72;;
80384;SDS011;69702;44.618;33.604;2023-08-20T08:03:48;9.97;;;3.67;;
80384;SDS011;69702;44.618;33.604;2023-08-20T08:06:14;10.00;;;4.13;;
80384;SDS011;69702;44.618;33.604;2023-08-20T08:08:42;9.88;;;4.10;;
80384;SDS011;69702;44.618;33.604;2023-08-20T08:11:10;9.10;;;3.72;;
80384;SDS011;69702;44.618;33.604;2023-08-20T08:13:36;6.68;;;3.58;;
80384;SDS011;69702;44.618;33.604;2023-08-20T08:16:02;9.47;;;3.80;;
80384;SDS011;69702;44.618;33.604;2023-08-20T08:18:28;9.80;;;3.70;;
80384;SDS011;69702;44.618;33.604;2023-08-20T08:20:54;8.13;;;3.80;;
80384;SDS011;69702;44.618;33.604;2023-08-20T08:23:20;8.60;;;3.80;;
80384;SDS011;69702;44.618;33.604;2023-08-20T08:25:46;8.23;;;3.67;;
80384;SDS011;69702;44.618;33.604;2023-08-20T08:28:12;13.90;;;3.40;;
80384;SDS011;69702;44.618;33.604;2023-08-20T08:30:38;8.68;;;3.88;;
80384;SDS011;69702;44.618;33.604;2023-08-20T08:33:05;7.82;;;3.67;;
80384;SDS011;69702;44.618;33.604;2023-08-20T08:35:31;7.65;;;3.25;;
80384;SDS011;69702;44.618;33.604;2023-08-20T08:37:57;9.23;;;3.60;;
80384;SDS011;69702;44.618;33.604;2023-08-20T08:40:24;8.00;;;4.03;;
80384;SDS011;69702;44.618;33.604;2023-08-20T08:42:54;5.88;;;3.55;;
80384;SDS011;69702;44.618;33.604;2023-08-20T08:45:20;18.42;;;4.00;;
80384;SDS011;69702;44.618;33.604;2023-08-20T08:47:47;11.02;;;4.15;;
80384;SDS011;69702;44.618;33.604;2023-08-20T08:50:13;7.97;;;3.92;;
80384;SDS011;69702;44.618;33.604;2023-08-20T08:52:39;6.18;;;3.72;;
80384;SDS011;69702;44.618;33.604;2023-08-20T08:55:07;6.45;;;3.53;;
80384;SDS011;69702;44.618;33.604;2023-08-20T08:57:36;6.15;;;3.42;;
80384;SDS011;69702;44.618;33.604;2023-08-20T09:00:03;7.55;;;3.22;;
80384;SDS011;69702;44.618;33.604;2023-08-20T09:02:33;10.20;;;3.50;;
80384;SDS011;69702;44.618;33.604;2023-08-20T09:04:59;7.60;;;3.63;;
80384;SDS011;69702;44.618;33.604;2023-08-20T09:07:26;10.93;;;3.17;;
80384;SDS011;69702;44.618;33.604;2023-08-20T09:09:56;9.27;;;3.05;;
80384;SDS011;69702;44.618;33.604;2023-08-20T09:12:23;8.07;;;3.15;;
80384;SDS011;69702;44.618;33.604;2023-08-20T09:14:50;6.17;;;2.93;;
80384;SDS011;69702;44.618;33.604;2023-08-20T09:17:16;12.88;;;3.28;;
80384;SDS011;69702;44.618;33.604;2023-08-20T09:19:43;8.45;;;3.38;;
80384;SDS011;69702;44.618;33.604;2023-08-20T09:22:13;7.68;;;3.45;;
80384;SDS011;69702;44.618;33.604;2023-08-20T09:24:51;8.15;;;3.00;;
80384;SDS011;69702;44.618;33.604;2023-08-20T09:27:21;7.45;;;3.10;;
80384;SDS011;69702;44.618;33.604;2023-08-20T09:29:48;7.28;;;2.75;;
80384;SDS011;69702;44.618;33.604;2023-08-20T09:32:16;7.63;;;3.00;;
80384;SDS011;69702;44.618;33.604;2023-08-20T09:34:43;8.30;;;2.03;;
80384;SDS011;69702;44.618;33.604;2023-08-20T09:37:10;7.55;;;2.75;;
80384;SDS011;69702;44.618;33.604;2023-08-20T09:39:37;7.38;;;3.50;;
80384;SDS011;69702;44.618;33.604;2023-08-20T09:42:04;15.98;;;3.70;;
80384;SDS011;69702;44.618;33.604;2023-08-20T09:45:29;8.05;;;3.25;;
80384;SDS011;69702;44.618;33.604;2023-08-20T09:48:56;8.93;;;3.25;;
80384;SDS011;69702;44.618;33.604;2023-08-20T09:52:23;11.30;;;3.30;;
80384;SDS011;69702;44.618;33.604;2023-08-20T09:55:49;5.88;;;3.20;;
80384;SDS011;69702;44.618;33.604;2023-08-20T09:59:19;6.07;;;2.83;;
80384;SDS011;69702;44.618;33.604;2023-08-20T10:02:45;5.53;;;2.90;;
80384;SDS011;69702;44.618;33.604;2023-08-20T10:06:09;7.75;;;3.08;;
80384;SDS011;69702;44.618;33.604;2023-08-20T10:09:35;5.65;;;2.90;;
80384;SDS011;69702;44.618;33.604;2023-08-20T10:13:01;6.40;;;3.10;;
80384;SDS011;69702;44.618;33.604;2023-08-20T10:16:27;7.75;;;3.13;;
80384;SDS011;69702;44.618;33.604;2023-08-20T10:19:55;5.72;;;3.17;;
80384;SDS011;69702;44.618;33.604;2023-08-20T10:23:25;4.82;;;2.97;;
80384;SDS011;69702;44.618;33.604;2023-08-20T10:27:06;5.88;;;2.83;;
80384;SDS011;69702;44.618;33.604;2023-08-20T10:30:54;4.82;;;3.17;;
80384;SDS011;69702;44.618;33.604;2023-08-20T10:34:33;6.93;;;2.80;;
80384;SDS011;69702;44.618;33.604;2023-08-20T10:41:32;6.22;;;3.03;;
80384;SDS011;69702;44.618;33.604;2023-08-20T10:45:01;6.43;;;2.90;;
80384;SDS011;69702;44.618;33.604;2023-08-20T10:48:39;6.28;;;3.55;;
80384;SDS011;69702;44.618;33.604;2023-08-20T10:52:04;5.78;;;2.88;;
80384;SDS011;69702;44.618;33.604;2023-08-20T10:55:29;10.45;;;3.17;;
80384;SDS011;69702;44.618;33.604;2023-08-20T10:59:15;5.45;;;3.00;;
80384;SDS011;69702;44.618;33.604;2023-08-20T11:02:41;6.80;;;5.10;;
80384;SDS011;69702;44.618;33.604;2023-08-20T11:06:07;6.07;;;2.80;;
80384;SDS011;69702;44.618;33.604;2023-08-20T11:09:31;6.65;;;3.30;;
80384;SDS011;69702;44.618;33.604;2023-08-20T11:12:56;9.88;;;2.95;;
80384;SDS011;69702;44.618;33.604;2023-08-20T11:16:21;6.05;;;4.20;;
80384;SDS011;69702;44.618;33.604;2023-08-20T11:19:46;8.15;;;3.35;;
80384;SDS011;69702;44.618;33.604;2023-08-20T11:23:10;7.90;;;3.10;;
80384;SDS011;69702;44.618;33.604;2023-08-20T11:26:36;8.32;;;4.30;;
80384;SDS011;69702;44.618;33.604;2023-08-20T11:30:05;6.13;;;3.05;;
80384;SDS011;69702;44.618;33.604;2023-08-20T11:33:30;7.13;;;3.00;;
80384;SDS011;69702;44.618;33.604;2023-08-20T11:36:54;5.25;;;2.20;;
80384;SDS011;69702;44.618;33.604;2023-08-20T11:40:22;8.55;;;2.40;;
80384;SDS011;69702;44.618;33.604;2023-08-20T11:43:47;8.23;;;2.70;;
80384;SDS011;69702;44.618;33.604;2023-08-20T11:47:13;7.95;;;2.67;;
80384;SDS011;69702;44.618;33.604;2023-08-20T11:50:37;6.03;;;2.25;;
80384;SDS011;69702;44.618;33.604;2023-08-20T11:54:13;6.20;;;2.75;;
80384;SDS011;69702;44.618;33.604;2023-08-20T11:57:39;5.38;;;2.58;;
80384;SDS011;69702;44.618;33.604;2023-08-20T12:01:07;7.60;;;2.73;;
80384;SDS011;69702;44.618;33.604;2023-08-20T12:04:32;5.25;;;2.70;;
80384;SDS011;69702;44.618;33.604;2023-08-20T12:11:25;5.72;;;2.25;;
80384;SDS011;69702;44.618;33.604;2023-08-20T12:14:49;4.65;;;2.50;;
80384;SDS011;69702;44.618;33.604;2023-08-20T12:18:14;6.10;;;3.07;;
80384;SDS011;69702;44.618;33.604;2023-08-20T12:21:42;8.05;;;4.13;;
80384;SDS011;69702;44.618;33.604;2023-08-20T12:25:07;8.00;;;4.10;;
80384;SDS011;69702;44.618;33.604;2023-08-20T12:28:31;12.73;;;5.25;;
80384;SDS011;69702;44.618;33.604;2023-08-20T12:31:56;14.13;;;5.00;;
80384;SDS011;69702;44.618;33.604;2023-08-20T12:35:21;10.40;;;4.20;;
80384;SDS011;69702;44.618;33.604;2023-08-20T12:38:45;10.77;;;5.20;;
80384;SDS011;69702;44.618;33.604;2023-08-20T12:42:10;10.38;;;4.28;;
80384;SDS011;69702;44.618;33.604;2023-08-20T12:45:34;8.07;;;4.50;;
80384;SDS011;69702;44.618;33.604;2023-08-20T12:48:59;8.35;;;4.03;;
80384;SDS011;69702;44.618;33.604;2023-08-20T12:52:23;10.10;;;4.90;;
80384;SDS011;69702;44.618;33.604;2023-08-20T12:55:48;11.95;;;5.63;;
80384;SDS011;69702;44.618;33.604;2023-08-20T12:59:12;10.15;;;6.22;;
80384;SDS011;69702;44.618;33.604;2023-08-20T13:02:37;8.60;;;5.07;;
80384;SDS011;69702;44.618;33.604;2023-08-20T13:06:03;8.77;;;4.28;;
80384;SDS011;69702;44.618;33.604;2023-08-20T13:09:28;8.37;;;4.33;;
80384;SDS011;69702;44.618;33.604;2023-08-20T13:12:54;11.48;;;4.28;;
80384;SDS011;69702;44.618;33.604;2023-08-20T13:16:23;8.38;;;4.65;;
80384;SDS011;69702;44.618;33.604;2023-08-20T13:19:47;9.68;;;4.22;;
80384;SDS011;69702;44.618;33.604;2023-08-20T13:23:12;8.70;;;4.65;;
80384;SDS011;69702;44.618;33.604;2023-08-20T13:26:37;11.43;;;4.97;;
80384;SDS011;69702;44.618;33.604;2023-08-20T13:30:02;8.93;;;4.30;;
80384;SDS011;69702;44.618;33.604;2023-08-20T13:33:27;15.52;;;8.43;;
80384;SDS011;69702;44.618;33.604;2023-08-20T13:36:52;13.65;;;4.82;;
80384;SDS011;69702;44.618;33.604;2023-08-20T13:40:18;9.52;;;4.68;;
80384;SDS011;69702;44.618;33.604;2023-08-20T13:43:42;12.20;;;4.17;;
80384;SDS011;69702;44.618;33.604;2023-08-20T13:47:07;9.98;;;4.40;;
80384;SDS011;69702;44.618;33.604;2023-08-20T13:50:33;8.85;;;4.63;;
80384;SDS011;69702;44.618;33.604;2023-08-20T13:53:57;12.25;;;4.97;;
80384;SDS011;69702;44.618;33.604;2023-08-20T13:57:22;17.67;;;6.25;;
80384;SDS011;69702;44.618;33.604;2023-08-20T14:00:47;11.37;;;5.17;;
80384;SDS011;69702;44.618;33.604;2023-08-20T14:04:12;13.70;;;5.35;;
80384;SDS011;69702;44.618;33.604;2023-08-20T14:07:37;12.68;;;6.80;;
80384;SDS011;69702;44.618;33.604;2023-08-20T14:11:02;12.68;;;5.68;;
80384;SDS011;69702;44.618;33.604;2023-08-20T14:14:26;14.20;;;6.93;;
80384;SDS011;69702;44.618;33.604;2023-08-20T14:17:51;15.30;;;6.10;;
80384;SDS011;69702;44.618;33.604;2023-08-20T14:21:15;11.82;;;6.15;;
80384;SDS011;69702;44.618;33.604;2023-08-20T14:24:40;16.27;;;6.30;;
80384;SDS011;69702;44.618;33.604;2023-08-20T14:28:07;10.73;;;6.05;;
80384;SDS011;69702;44.618;33.604;2023-08-20T14:31:31;14.82;;;5.82;;
80384;SDS011;69702;44.618;33.604;2023-08-20T14:34:56;13.73;;;7.00;;
80384;SDS011;69702;44.618;33.604;2023-08-20T14:38:20;15.07;;;6.68;;
80384;SDS011;69702;44.618;33.604;2023-08-20T14:41:45;16.45;;;6.35;;
80384;SDS011;69702;44.618;33.604;2023-08-20T14:45:09;19.85;;;7.72;;
80384;SDS011;69702;44.618;33.604;2023-08-20T14:48:34;14.93;;;5.80;;
80384;SDS011;69702;44.618;33.604;2023-08-20T14:51:58;9.97;;;6.17;;
80384;SDS011;69702;44.618;33.604;2023-08-20T14:55:23;15.45;;;7.28;;
80384;SDS011;69702;44.618;33.604;2023-08-20T14:58:49;10.63;;;5.63;;
80384;SDS011;69702;44.618;33.604;2023-08-20T15:02:13;12.77;;;6.05;;
80384;SDS011;69702;44.618;33.604;2023-08-20T15:05:38;14.50;;;5.95;;
80384;SDS011;69702;44.618;33.604;2023-08-20T15:09:02;23.53;;;6.43;;
80384;SDS011;69702;44.618;33.604;2023-08-20T15:12:33;20.80;;;6.30;;
80384;SDS011;69702;44.618;33.604;2023-08-20T15:15:58;13.65;;;6.15;;
80384;SDS011;69702;44.618;33.604;2023-08-20T15:19:23;11.07;;;5.88;;
80384;SDS011;69702;44.618;33.604;2023-08-20T15:22:48;15.13;;;7.78;;
80384;SDS011;69702;44.618;33.604;2023-08-20T15:26:12;12.30;;;7.10;;
80384;SDS011;69702;44.618;33.604;2023-08-20T15:29:37;11.50;;;6.50;;
80384;SDS011;69702;44.618;33.604;2023-08-20T15:33:01;14.73;;;6.40;;
80384;SDS011;69702;44.618;33.604;2023-08-20T15:36:26;14.07;;;6.25;;
80384;SDS011;69702;44.618;33.604;2023-08-20T15:39:51;13.25;;;6.18;;
80384;SDS011;69702;44.618;33.604;2023-08-20T15:43:16;17.17;;;7.50;;
80384;SDS011;69702;44.618;33.604;2023-08-20T15:46:40;13.52;;;5.80;;
80384;SDS011;69702;44.618;33.604;2023-08-20T15:50:05;13.05;;;5.95;;
80384;SDS011;69702;44.618;33.604;2023-08-20T15:53:29;13.20;;;6.35;;
80384;SDS011;69702;44.618;33.604;2023-08-20T15:56:54;10.38;;;6.18;;
80384;SDS011;69702;44.618;33.604;2023-08-20T16:00:19;11.13;;;6.50;;
80384;SDS011;69702;44.618;33.604;2023-08-20T16:03:43;15.88;;;6.72;;
80384;SDS011;69702;44.618;33.604;2023-08-20T16:07:08;11.57;;;6.82;;
80384;SDS011;69702;44.618;33.604;2023-08-20T16:10:33;10.63;;;5.97;;
80384;SDS011;69702;44.618;33.604;2023-08-20T16:13:58;12.43;;;6.68;;
80384;SDS011;69702;44.618;33.604;2023-08-20T16:17:23;10.93;;;6.17;;
80384;SDS011;69702;44.618;33.604;2023-08-20T16:20:47;12.93;;;7.72;;
80384;SDS011;69702;44.618;33.604;2023-08-20T16:24:12;11.93;;;6.50;;
80384;SDS011;69702;44.618;33.604;2023-08-20T16:27:37;12.02;;;6.75;;
80384;SDS011;69702;44.618;33.604;2023-08-20T16:31:02;14.52;;;6.85;;